Time;durP1;ratioP1;P1;durP2;ratioP2;P2;SDS_P1;SDS_P2;PMS_P1;PMS_P2;Temp;Humidity;BMP_temperature;BMP_pressure;BME280_temperature;BME280_humidity;BME280_pressure;Samples;Min_cycle;Max_cycle;Signal;HPM_P1;HPM_P2
2020/12/24 00:01:20;;;;;;;1.58;0.70;;;;;;;;;;5012842;28;20083;-73
2020/12/24 00:03:47;;;;;;;1.73;0.50;;;;;;;;;;5011504;28;20030;-73
2020/12/24 00:06:13;;;;;;;1.33;0.60;;;;;;;;;;5012795;28;20034;-73
2020/12/24 00:08:39;;;;;;;0.80;0.60;;;;;;;;;;5012867;28;20060;-72
2020/12/24 00:11:08;;;;;;;2.13;0.60;;;;;;;;;;5012731;28;20026;-73
2020/12/24 00:13:34;;;;;;;2.42;0.73;;;;;;;;;;5012543;28;20030;-72
2020/12/24 00:16:00;;;;;;;0.70;0.65;;;;;;;;;;5012701;28;20049;-73
2020/12/24 00:18:26;;;;;;;1.42;0.40;;;;;;;;;;5012821;28;20378;-73
2020/12/24 00:20:52;;;;;;;2.25;0.52;;;;;;;;;;5012531;28;20033;-73
2020/12/24 00:23:19;;;;;;;2.90;0.80;;;;;;;;;;5012616;28;20102;-73
2020/12/24 00:25:45;;;;;;;0.75;0.68;;;;;;;;;;5012569;28;20042;-73
2020/12/24 00:28:11;;;;;;;0.60;0.60;;;;;;;;;;5012684;28;20022;-72
2020/12/24 00:30:40;;;;;;;1.30;0.70;;;;;;;;;;5012483;28;20021;-72
2020/12/24 00:33:07;;;;;;;0.55;0.50;;;;;;;;;;5012464;28;20049;-73
2020/12/24 00:35:33;;;;;;;1.92;1.35;;;;;;;;;;5012474;28;20426;-72
2020/12/24 00:37:59;;;;;;;2.08;0.82;;;;;;;;;;5012248;28;20501;-73
2020/12/24 00:40:27;;;;;;;2.45;0.93;;;;;;;;;;5012777;28;20026;-72
2020/12/24 00:42:53;;;;;;;1.48;0.70;;;;;;;;;;5012466;28;20030;-73
2020/12/24 00:45:19;;;;;;;1.63;0.77;;;;;;;;;;5009363;28;20038;-72
2020/12/24 00:47:45;;;;;;;1.45;0.65;;;;;;;;;;4990867;28;20425;-72
2020/12/24 00:50:11;;;;;;;0.40;0.40;;;;;;;;;;4992834;28;20034;-74
2020/12/24 00:52:37;;;;;;;1.60;0.60;;;;;;;;;;4992841;28;20069;-72
2020/12/24 00:55:03;;;;;;;0.80;0.52;;;;;;;;;;4992629;28;20157;-72
2020/12/24 00:57:30;;;;;;;1.15;0.55;;;;;;;;;;4992846;28;20485;-72
2020/12/24 00:59:56;;;;;;;0.70;0.60;;;;;;;;;;4992687;28;20089;-72
2020/12/24 01:02:22;;;;;;;0.88;0.60;;;;;;;;;;4992634;28;20080;-72
2020/12/24 01:04:48;;;;;;;3.20;0.70;;;;;;;;;;4978384;28;20112;-73
2020/12/24 01:07:14;;;;;;;0.60;0.50;;;;;;;;;;4996304;28;20023;-72
2020/12/24 01:09:40;;;;;;;1.13;0.70;;;;;;;;;;4996219;28;20054;-73
2020/12/24 01:12:06;;;;;;;1.25;0.65;;;;;;;;;;4996130;28;20034;-73
2020/12/24 01:14:33;;;;;;;0.60;0.60;;;;;;;;;;4996216;28;20026;-73
2020/12/24 01:16:59;;;;;;;4.05;1.10;;;;;;;;;;4996137;28;20382;-73
2020/12/24 01:19:25;;;;;;;1.98;0.70;;;;;;;;;;4996271;28;20018;-73
2020/12/24 01:21:51;;;;;;;0.73;0.60;;;;;;;;;;4996108;28;20525;-73
2020/12/24 01:24:17;;;;;;;2.25;0.70;;;;;;;;;;4995850;28;20038;-72
2020/12/24 01:26:46;;;;;;;1.65;0.70;;;;;;;;;;4996067;28;20037;-73
2020/12/24 01:29:13;;;;;;;1.08;0.90;;;;;;;;;;4995942;28;20023;-73
2020/12/24 01:31:43;;;;;;;0.68;0.68;;;;;;;;;;4978371;28;20035;-73
2020/12/24 01:34:09;;;;;;;3.15;0.70;;;;;;;;;;4995722;28;20061;-73
2020/12/24 01:36:35;;;;;;;0.63;0.60;;;;;;;;;;4995872;28;20027;-73
2020/12/24 01:39:01;;;;;;;1.77;0.63;;;;;;;;;;4978404;28;20019;-73
2020/12/24 01:41:27;;;;;;;0.75;0.70;;;;;;;;;;4995812;28;20565;-73
2020/12/24 01:43:54;;;;;;;1.23;0.60;;;;;;;;;;4995811;28;20542;-73
2020/12/24 01:46:20;;;;;;;1.35;0.70;;;;;;;;;;4995459;28;20030;-73
2020/12/24 01:48:46;;;;;;;2.15;0.65;;;;;;;;;;4995539;28;20114;-73
2020/12/24 01:51:14;;;;;;;2.55;0.68;;;;;;;;;;4995612;28;20474;-73
2020/12/24 01:53:40;;;;;;;0.65;0.65;;;;;;;;;;4978065;28;20033;-73
2020/12/24 01:56:06;;;;;;;2.15;0.70;;;;;;;;;;4995674;28;20481;-73
2020/12/24 01:58:32;;;;;;;2.25;0.80;;;;;;;;;;4995229;28;20441;-73
2020/12/24 02:00:58;;;;;;;1.15;0.80;;;;;;;;;;4995294;28;20022;-73
2020/12/24 02:03:25;;;;;;;1.88;0.70;;;;;;;;;;4995480;28;20027;-73
2020/12/24 02:05:51;;;;;;;0.80;0.73;;;;;;;;;;4995130;28;20038;-73
2020/12/24 02:08:18;;;;;;;2.58;0.70;;;;;;;;;;4995219;28;20038;-73
2020/12/24 02:10:44;;;;;;;2.78;0.80;;;;;;;;;;4995098;28;20030;-73
2020/12/24 02:13:10;;;;;;;0.63;0.43;;;;;;;;;;4995058;28;20018;-73
2020/12/24 02:15:36;;;;;;;0.50;0.47;;;;;;;;;;4994297;28;20027;-73
2020/12/24 02:18:02;;;;;;;1.75;0.70;;;;;;;;;;4994932;28;20076;-73
2020/12/24 02:20:28;;;;;;;1.20;0.57;;;;;;;;;;4995106;28;20033;-73
2020/12/24 02:22:54;;;;;;;1.25;0.50;;;;;;;;;;4995163;28;20022;-73
2020/12/24 02:25:21;;;;;;;1.08;0.50;;;;;;;;;;4994982;28;20454;-73
2020/12/24 02:27:47;;;;;;;1.00;0.40;;;;;;;;;;4994760;28;20034;-73
2020/12/24 02:30:13;;;;;;;0.98;0.47;;;;;;;;;;4994911;28;20022;-73
2020/12/24 02:32:39;;;;;;;0.90;0.45;;;;;;;;;;4994697;28;20467;-73
2020/12/24 02:35:05;;;;;;;0.75;0.63;;;;;;;;;;4994694;28;20030;-73
2020/12/24 02:37:31;;;;;;;0.70;0.50;;;;;;;;;;4977183;28;20026;-73
2020/12/24 02:39:57;;;;;;;0.80;0.60;;;;;;;;;;4977196;28;20154;-73
2020/12/24 02:42:24;;;;;;;1.30;0.57;;;;;;;;;;4994971;28;20481;-72
2020/12/24 02:44:50;;;;;;;1.98;0.63;;;;;;;;;;4994401;28;20393;-73
2020/12/24 02:47:16;;;;;;;2.72;0.80;;;;;;;;;;4976954;28;20033;-73
2020/12/24 02:49:42;;;;;;;0.73;0.47;;;;;;;;;;4994377;28;20037;-73
2020/12/24 02:52:08;;;;;;;2.92;0.60;;;;;;;;;;4994362;28;20030;-73
2020/12/24 02:54:34;;;;;;;0.30;0.30;;;;;;;;;;4994345;28;20105;-73
2020/12/24 02:57:00;;;;;;;1.80;0.43;;;;;;;;;;4994233;28;20030;-73
2020/12/24 02:59:27;;;;;;;1.25;0.50;;;;;;;;;;4994274;28;20046;-73
2020/12/24 03:01:53;;;;;;;0.93;0.50;;;;;;;;;;4994553;28;20105;-73
2020/12/24 03:04:19;;;;;;;0.85;0.40;;;;;;;;;;4976566;28;20022;-73
2020/12/24 03:06:46;;;;;;;3.00;0.50;;;;;;;;;;4994014;28;20026;-74
2020/12/24 03:09:12;;;;;;;0.82;0.40;;;;;;;;;;4994176;28;20602;-73
2020/12/24 03:11:44;;;;;;;0.30;0.30;;;;;;;;;;4994078;28;20058;-73
2020/12/24 03:14:10;;;;;;;1.85;0.47;;;;;;;;;;4993962;28;20046;-73
2020/12/24 03:16:36;;;;;;;3.20;0.80;;;;;;;;;;4993884;28;20604;-74
2020/12/24 03:19:02;;;;;;;1.75;0.57;;;;;;;;;;4993961;28;20482;-73
2020/12/24 03:21:28;;;;;;;1.23;0.50;;;;;;;;;;4993884;28;20030;-73
2020/12/24 03:23:54;;;;;;;0.80;0.52;;;;;;;;;;4993893;28;20525;-74
2020/12/24 03:26:20;;;;;;;0.77;0.45;;;;;;;;;;4993090;28;20030;-73
2020/12/24 03:28:46;;;;;;;0.75;0.50;;;;;;;;;;4993444;28;20034;-73
2020/12/24 03:31:12;;;;;;;0.40;0.32;;;;;;;;;;4993719;28;20023;-73
2020/12/24 03:33:38;;;;;;;0.88;0.43;;;;;;;;;;4993716;28;20462;-73
2020/12/24 03:36:04;;;;;;;1.27;0.40;;;;;;;;;;4993495;28;20029;-73
2020/12/24 03:38:30;;;;;;;0.45;0.40;;;;;;;;;;4993645;28;20065;-74
2020/12/24 03:40:56;;;;;;;2.08;0.60;;;;;;;;;;4993765;28;20030;-74
2020/12/24 03:43:22;;;;;;;1.85;0.50;;;;;;;;;;4993403;28;20034;-73
2020/12/24 03:45:48;;;;;;;1.15;0.50;;;;;;;;;;4993416;28;20121;-74
2020/12/24 03:48:14;;;;;;;0.60;0.50;;;;;;;;;;4993407;28;20031;-74
2020/12/24 03:50:40;;;;;;;1.50;0.60;;;;;;;;;;4993458;28;20030;-74
2020/12/24 03:53:06;;;;;;;1.95;0.60;;;;;;;;;;4993211;28;20034;-73
2020/12/24 03:55:32;;;;;;;1.73;0.70;;;;;;;;;;4993359;28;20022;-73
2020/12/24 03:57:58;;;;;;;3.72;0.50;;;;;;;;;;4993141;28;20105;-73
2020/12/24 04:00:24;;;;;;;1.23;0.60;;;;;;;;;;4993379;28;20112;-74
2020/12/24 04:02:50;;;;;;;0.88;0.47;;;;;;;;;;4993175;28;20030;-73
2020/12/24 04:05:16;;;;;;;1.85;0.70;;;;;;;;;;4992998;28;20038;-73
2020/12/24 04:07:42;;;;;;;0.65;0.50;;;;;;;;;;4993270;28;20374;-74
2020/12/24 04:10:09;;;;;;;1.13;0.60;;;;;;;;;;4993200;28;20477;-73
2020/12/24 04:12:35;;;;;;;4.60;0.50;;;;;;;;;;4993096;28;20019;-73
2020/12/24 04:15:01;;;;;;;1.05;0.50;;;;;;;;;;4993035;28;20031;-73
2020/12/24 04:17:27;;;;;;;6.43;0.55;;;;;;;;;;4992862;28;20049;-72
2020/12/24 04:19:53;;;;;;;1.30;0.50;;;;;;;;;;4993367;28;20455;-72
2020/12/24 04:22:19;;;;;;;1.33;0.60;;;;;;;;;;4992988;28;20410;-72
2020/12/24 04:24:45;;;;;;;1.77;0.63;;;;;;;;;;4992912;28;20043;-72
2020/12/24 04:27:11;;;;;;;2.72;0.57;;;;;;;;;;4992912;28;20038;-72
2020/12/24 04:29:37;;;;;;;2.25;0.60;;;;;;;;;;4992686;28;20173;-72
2020/12/24 04:32:03;;;;;;;2.00;0.60;;;;;;;;;;4993024;28;20070;-72
2020/12/24 04:34:29;;;;;;;1.30;0.50;;;;;;;;;;4993047;28;20062;-72
2020/12/24 04:36:55;;;;;;;2.83;1.00;;;;;;;;;;4992994;28;20033;-72
2020/12/24 04:39:21;;;;;;;5.20;0.98;;;;;;;;;;4995423;28;20077;-72
2020/12/24 04:41:47;;;;;;;0.88;0.55;;;;;;;;;;4996815;28;20087;-72
2020/12/24 04:44:14;;;;;;;2.05;0.93;;;;;;;;;;4996689;28;20033;-72
2020/12/24 04:46:42;;;;;;;1.45;0.60;;;;;;;;;;4996697;28;20049;-72
2020/12/24 04:49:09;;;;;;;3.55;0.52;;;;;;;;;;4996618;28;20029;-72
2020/12/24 04:51:36;;;;;;;1.63;0.60;;;;;;;;;;4996735;28;20033;-72
2020/12/24 04:54:02;;;;;;;1.65;0.50;;;;;;;;;;4996267;28;20026;-72
2020/12/24 04:56:29;;;;;;;3.15;0.50;;;;;;;;;;4996584;28;20022;-72
2020/12/24 04:58:55;;;;;;;1.05;0.40;;;;;;;;;;4996481;28;20046;-72
2020/12/24 05:01:21;;;;;;;3.53;0.50;;;;;;;;;;4996498;28;20041;-72
2020/12/24 05:03:47;;;;;;;1.77;0.60;;;;;;;;;;4996275;28;20517;-72
2020/12/24 05:06:17;;;;;;;2.22;0.50;;;;;;;;;;4996079;28;20026;-72
2020/12/24 05:08:58;;;;;;;1.05;0.50;;;;;;;;;;4996399;28;20053;-72
2020/12/24 05:11:28;;;;;;;0.55;0.20;;;;;;;;;;4996392;28;20030;-72
2020/12/24 05:14:15;;;;;;;1.27;0.22;;;;;;;;;;4996459;28;20097;-72
2020/12/24 05:16:41;;;;;;;1.27;0.47;;;;;;;;;;4995970;28;20110;-74
2020/12/24 05:19:13;;;;;;;2.60;0.40;;;;;;;;;;4996014;28;20030;-73
2020/12/24 05:21:39;;;;;;;1.40;0.30;;;;;;;;;;4996043;28;20022;-73
2020/12/24 05:24:24;;;;;;;2.63;0.50;;;;;;;;;;4995755;28;20038;-73
2020/12/24 05:26:50;;;;;;;1.10;0.30;;;;;;;;;;4978710;28;20030;-73
2020/12/24 05:29:17;;;;;;;2.58;0.77;;;;;;;;;;4995929;28;20034;-73
2020/12/24 05:31:43;;;;;;;1.13;0.30;;;;;;;;;;4996115;28;20053;-73
2020/12/24 05:34:17;;;;;;;1.92;0.45;;;;;;;;;;4996093;28;20073;-73
2020/12/24 05:36:43;;;;;;;1.77;0.40;;;;;;;;;;4995824;28;20034;-73
2020/12/24 05:39:09;;;;;;;1.05;0.30;;;;;;;;;;4996009;28;20029;-73
2020/12/24 05:41:36;;;;;;;0.68;0.38;;;;;;;;;;4995956;28;20026;-73
2020/12/24 05:44:07;;;;;;;1.23;0.30;;;;;;;;;;4995600;28;20021;-73
2020/12/24 05:46:40;;;;;;;2.00;0.45;;;;;;;;;;4995801;28;20035;-74
2020/12/24 05:49:13;;;;;;;0.52;0.40;;;;;;;;;;4995429;28;20034;-74
2020/12/24 05:51:39;;;;;;;1.65;0.40;;;;;;;;;;4995368;28;20053;-74
2020/12/24 05:54:06;;;;;;;4.32;0.73;;;;;;;;;;4995883;28;20026;-74
2020/12/24 05:56:33;;;;;;;2.35;0.60;;;;;;;;;;4995596;28;20027;-74
2020/12/24 05:59:02;;;;;;;2.97;1.17;;;;;;;;;;4995487;28;20552;-73
2020/12/24 06:01:28;;;;;;;6.18;0.95;;;;;;;;;;4978081;28;20470;-73
2020/12/24 06:04:02;;;;;;;5.72;0.90;;;;;;;;;;4994941;28;20030;-74
2020/12/24 06:06:47;;;;;;;2.58;0.50;;;;;;;;;;4995555;28;20482;-74
2020/12/24 06:09:21;;;;;;;4.18;1.08;;;;;;;;;;4995322;28;20022;-75
2020/12/24 06:11:48;;;;;;;3.63;0.60;;;;;;;;;;4995285;28;20040;-73
2020/12/24 06:14:15;;;;;;;3.10;0.60;;;;;;;;;;4995215;28;20466;-74
2020/12/24 06:16:44;;;;;;;7.05;0.70;;;;;;;;;;4995077;28;20081;-73
2020/12/24 06:19:12;;;;;;;4.55;1.02;;;;;;;;;;4995119;28;20478;-73
2020/12/24 06:21:42;;;;;;;4.78;0.80;;;;;;;;;;4995157;28;20390;-73
2020/12/24 06:24:09;;;;;;;6.45;0.80;;;;;;;;;;4994897;28;20023;-73
2020/12/24 06:26:38;;;;;;;1.88;0.65;;;;;;;;;;4995085;28;20034;-74
2020/12/24 06:29:04;;;;;;;2.65;0.93;;;;;;;;;;4995087;28;20022;-73
2020/12/24 06:31:31;;;;;;;4.40;1.15;;;;;;;;;;4994976;28;20085;-73
2020/12/24 06:33:57;;;;;;;4.18;1.17;;;;;;;;;;4994848;28;20050;-73
2020/12/24 06:36:32;;;;;;;3.78;0.75;;;;;;;;;;4994971;28;20026;-74
2020/12/24 06:38:59;;;;;;;3.15;0.88;;;;;;;;;;4994868;28;20054;-73
2020/12/24 06:41:27;;;;;;;7.32;1.13;;;;;;;;;;4995016;28;20027;-74
2020/12/24 06:43:54;;;;;;;4.45;1.35;;;;;;;;;;4994728;28;20023;-74
2020/12/24 06:46:20;;;;;;;2.35;0.73;;;;;;;;;;4977125;28;20433;-73
2020/12/24 06:48:59;;;;;;;5.65;0.80;;;;;;;;;;4977021;28;20030;-74
2020/12/24 06:51:25;;;;;;;7.07;1.25;;;;;;;;;;4994527;28;20513;-73
2020/12/24 06:53:51;;;;;;;7.32;1.00;;;;;;;;;;4994332;28;20023;-75
2020/12/24 06:56:22;;;;;;;6.80;1.30;;;;;;;;;;4994274;28;20026;-74
2020/12/24 06:58:51;;;;;;;4.05;0.80;;;;;;;;;;4994073;28;20057;-73
2020/12/24 07:01:21;;;;;;;4.30;0.93;;;;;;;;;;4994186;28;20026;-74
2020/12/24 07:03:50;;;;;;;3.30;1.00;;;;;;;;;;4992332;28;20064;-74
2020/12/24 07:06:35;;;;;;;5.80;1.00;;;;;;;;;;4991809;28;20046;-74
2020/12/24 07:09:01;;;;;;;5.13;1.05;;;;;;;;;;4974470;28;20096;-74
2020/12/24 07:11:44;;;;;;;4.20;0.90;;;;;;;;;;4991888;28;20022;-74
2020/12/24 07:14:42;;;;;;;4.30;1.02;;;;;;;;;;4991813;28;20154;-74
2020/12/24 07:17:14;;;;;;;2.55;0.88;;;;;;;;;;4948354;28;20042;-75
2020/12/24 07:19:44;;;;;;;4.28;1.63;;;;;;;;;;4991410;28;20030;-74
2020/12/24 07:22:12;;;;;;;4.38;1.20;;;;;;;;;;4991562;28;20034;-73
2020/12/24 07:24:38;;;;;;;5.25;1.42;;;;;;;;;;4991407;28;20034;-74
2020/12/24 07:27:06;;;;;;;3.78;1.33;;;;;;;;;;4991052;28;20034;-74
2020/12/24 07:29:33;;;;;;;7.18;0.75;;;;;;;;;;4984540;28;20036;-74
2020/12/24 07:32:04;;;;;;;7.18;1.05;;;;;;;;;;5010769;28;20088;-74
2020/12/24 07:34:31;;;;;;;7.28;0.95;;;;;;;;;;5010300;28;20026;-74
2020/12/24 07:36:58;;;;;;;3.15;0.70;;;;;;;;;;5010995;28;20045;-74
2020/12/24 07:39:24;;;;;;;5.00;0.90;;;;;;;;;;5010356;28;20378;-74
2020/12/24 07:41:50;;;;;;;4.03;1.20;;;;;;;;;;5010502;28;20038;-74
2020/12/24 07:44:17;;;;;;;4.38;0.80;;;;;;;;;;5009150;28;20032;-74
2020/12/24 07:46:47;;;;;;;5.80;1.20;;;;;;;;;;5010333;28;20075;-74
2020/12/24 07:49:14;;;;;;;5.90;1.15;;;;;;;;;;5010068;28;20032;-75
2020/12/24 07:51:40;;;;;;;7.07;1.15;;;;;;;;;;5009889;28;20101;-74
2020/12/24 07:54:12;;;;;;;5.55;1.10;;;;;;;;;;4992925;28;20619;-74
2020/12/24 07:56:42;;;;;;;4.25;1.27;;;;;;;;;;5010227;28;20030;-74
2020/12/24 07:59:08;;;;;;;5.50;1.20;;;;;;;;;;5009990;28;20053;-74
2020/12/24 08:01:34;;;;;;;5.43;1.00;;;;;;;;;;5010365;28;20041;-74
2020/12/24 08:04:01;;;;;;;3.78;0.70;;;;;;;;;;5010028;28;20026;-74
2020/12/24 08:06:28;;;;;;;0.73;0.60;;;;;;;;;;5010412;28;20026;-75
2020/12/24 08:09:06;;;;;;;6.95;1.10;;;;;;;;;;5010197;28;20026;-74
2020/12/24 08:11:32;;;;;;;6.63;0.90;;;;;;;;;;4992446;28;20108;-76
2020/12/24 08:13:58;;;;;;;6.75;1.13;;;;;;;;;;5009259;28;20422;-76
2020/12/24 08:16:26;;;;;;;7.93;1.08;;;;;;;;;;5010026;28;20037;-75
2020/12/24 08:18:57;;;;;;;4.40;1.40;;;;;;;;;;5010577;28;20358;-75
2020/12/24 08:21:26;;;;;;;6.00;0.93;;;;;;;;;;5010608;28;20025;-75
2020/12/24 08:23:53;;;;;;;3.97;1.08;;;;;;;;;;5010328;28;20030;-75
2020/12/24 08:26:20;;;;;;;5.43;1.40;;;;;;;;;;5009687;28;20034;-75
2020/12/24 08:28:56;;;;;;;7.80;1.20;;;;;;;;;;5009831;28;20378;-76
2020/12/24 08:31:23;;;;;;;2.88;0.90;;;;;;;;;;5010140;28;20030;-75
2020/12/24 08:33:50;;;;;;;3.95;0.77;;;;;;;;;;5009897;28;20018;-75
2020/12/24 08:36:17;;;;;;;5.35;1.05;;;;;;;;;;5010138;28;20037;-75
2020/12/24 08:38:44;;;;;;;5.50;1.15;;;;;;;;;;5009700;28;20155;-75
2020/12/24 08:41:23;;;;;;;4.13;1.10;;;;;;;;;;5010138;28;20389;-74
2020/12/24 08:43:53;;;;;;;7.47;1.55;;;;;;;;;;5010193;28;20022;-74
2020/12/24 08:46:19;;;;;;;6.57;1.20;;;;;;;;;;5010149;28;20034;-75
2020/12/24 08:48:46;;;;;;;5.32;0.95;;;;;;;;;;5010235;28;20437;-75
2020/12/24 08:51:16;;;;;;;3.28;1.08;;;;;;;;;;5009704;28;20036;-75
2020/12/24 08:53:42;;;;;;;5.07;1.40;;;;;;;;;;5009496;28;20041;-76
2020/12/24 08:56:15;;;;;;;2.70;0.63;;;;;;;;;;5009892;28;20030;-76
2020/12/24 08:58:53;;;;;;;4.82;0.80;;;;;;;;;;5002552;28;20053;-76
2020/12/24 09:01:21;;;;;;;3.25;0.60;;;;;;;;;;5008816;28;20034;-76
2020/12/24 09:03:47;;;;;;;3.53;0.63;;;;;;;;;;5008883;28;20026;-76
2020/12/24 09:06:14;;;;;;;4.97;0.80;;;;;;;;;;5008518;28;20045;-76
2020/12/24 09:08:41;;;;;;;2.10;1.10;;;;;;;;;;5008976;28;20363;-76
2020/12/24 09:11:24;;;;;;;5.22;1.27;;;;;;;;;;5008040;28;20030;-76
2020/12/24 09:13:57;;;;;;;3.28;0.90;;;;;;;;;;4998824;28;20043;-76
2020/12/24 09:16:23;;;;;;;4.82;1.13;;;;;;;;;;4998126;28;20469;-76
2020/12/24 09:18:59;;;;;;;3.45;0.90;;;;;;;;;;4998735;28;20173;-76
2020/12/24 09:21:25;;;;;;;1.05;0.88;;;;;;;;;;4998411;28;20537;-76
2020/12/24 09:23:51;;;;;;;1.58;0.70;;;;;;;;;;5006372;28;20112;-76
2020/12/24 09:26:17;;;;;;;3.38;0.65;;;;;;;;;;5012012;28;20069;-76
2020/12/24 09:28:43;;;;;;;1.75;0.60;;;;;;;;;;5012406;28;20422;-78
2020/12/24 09:31:10;;;;;;;3.95;0.63;;;;;;;;;;5012593;28;20478;-77
2020/12/24 09:33:36;;;;;;;1.38;0.50;;;;;;;;;;5012827;28;20071;-77
2020/12/24 09:36:02;;;;;;;3.42;0.40;;;;;;;;;;5012377;28;20021;-77
2020/12/24 09:38:28;;;;;;;0.55;0.40;;;;;;;;;;5012173;28;20429;-77
2020/12/24 09:40:54;;;;;;;0.88;0.38;;;;;;;;;;5012949;28;20025;-76
2020/12/24 09:43:20;;;;;;;1.13;0.43;;;;;;;;;;5012296;28;20097;-76
2020/12/24 09:45:46;;;;;;;1.15;0.52;;;;;;;;;;5012270;28;20049;-77
2020/12/24 09:48:12;;;;;;;1.20;0.73;;;;;;;;;;5012080;28;20378;-76
2020/12/24 09:50:40;;;;;;;0.82;0.40;;;;;;;;;;5011955;28;20021;-77
2020/12/24 09:53:06;;;;;;;2.15;0.55;;;;;;;;;;4996821;28;20022;-76
2020/12/24 09:55:32;;;;;;;0.75;0.30;;;;;;;;;;4992727;28;20026;-76
2020/12/24 09:57:58;;;;;;;1.30;0.30;;;;;;;;;;4992405;28;20027;-76
2020/12/24 10:00:24;;;;;;;1.08;0.40;;;;;;;;;;4992709;28;20034;-77
2020/12/24 10:02:50;;;;;;;1.85;0.50;;;;;;;;;;4992334;28;20018;-77
2020/12/24 10:05:16;;;;;;;0.17;0.17;;;;;;;;;;4992395;28;20030;-76
2020/12/24 10:07:42;;;;;;;0.88;0.43;;;;;;;;;;4992036;28;20030;-76
2020/12/24 10:10:08;;;;;;;0.82;0.50;;;;;;;;;;4992354;28;20026;-76
2020/12/24 10:12:35;;;;;;;1.98;0.60;;;;;;;;;;4992104;28;20030;-76
2020/12/24 10:15:01;;;;;;;0.98;0.60;;;;;;;;;;4992302;28;20545;-76
2020/12/24 10:17:27;;;;;;;1.17;0.50;;;;;;;;;;4974749;28;20038;-76
2020/12/24 10:19:55;;;;;;;0.82;0.57;;;;;;;;;;4992444;28;20053;-76
2020/12/24 10:22:21;;;;;;;0.47;0.43;;;;;;;;;;4992255;28;20061;-76
2020/12/24 10:24:47;;;;;;;1.17;0.60;;;;;;;;;;4992117;28;20030;-76
2020/12/24 10:27:14;;;;;;;1.63;0.73;;;;;;;;;;4991835;28;20093;-76
2020/12/24 10:29:40;;;;;;;0.77;0.60;;;;;;;;;;4991896;28;20034;-76
2020/12/24 10:32:06;;;;;;;1.10;0.50;;;;;;;;;;4991799;28;20470;-76
2020/12/24 10:34:32;;;;;;;2.00;0.70;;;;;;;;;;4991662;28;20031;-76
2020/12/24 10:37:00;;;;;;;2.03;0.47;;;;;;;;;;4991203;28;20471;-76
2020/12/24 10:39:26;;;;;;;0.80;0.55;;;;;;;;;;4991788;28;20417;-76
2020/12/24 10:41:52;;;;;;;1.15;0.60;;;;;;;;;;4991923;28;20034;-76
2020/12/24 10:44:19;;;;;;;1.85;0.93;;;;;;;;;;4991586;28;20108;-76
2020/12/24 10:46:45;;;;;;;0.63;0.45;;;;;;;;;;4991787;28;20034;-76
2020/12/24 10:49:11;;;;;;;0.90;0.50;;;;;;;;;;4991657;28;20034;-76
2020/12/24 10:51:37;;;;;;;1.27;0.57;;;;;;;;;;4994840;28;20029;-76
2020/12/24 10:54:04;;;;;;;1.13;0.50;;;;;;;;;;5010875;28;20053;-76
2020/12/24 10:56:30;;;;;;;2.35;1.15;;;;;;;;;;5010814;28;20037;-77
2020/12/24 10:58:56;;;;;;;1.65;0.93;;;;;;;;;;5010902;28;20604;-77
2020/12/24 11:01:22;;;;;;;0.73;0.68;;;;;;;;;;5010735;28;20505;-76
2020/12/24 11:03:48;;;;;;;1.10;0.93;;;;;;;;;;5011042;28;20026;-76
2020/12/24 11:06:21;;;;;;;1.30;0.73;;;;;;;;;;5010775;28;20036;-76
2020/12/24 11:08:48;;;;;;;1.92;0.63;;;;;;;;;;5011001;28;20100;-76
2020/12/24 11:11:15;;;;;;;0.80;0.70;;;;;;;;;;4993315;28;20030;-77
2020/12/24 11:13:41;;;;;;;1.08;0.55;;;;;;;;;;4993153;28;20029;-76
2020/12/24 11:16:08;;;;;;;0.60;0.50;;;;;;;;;;5010447;28;20026;-76
2020/12/24 11:18:37;;;;;;;1.25;0.50;;;;;;;;;;5010538;28;20034;-76
2020/12/24 11:21:04;;;;;;;0.57;0.55;;;;;;;;;;5010555;28;20080;-75
2020/12/24 11:23:30;;;;;;;0.65;0.40;;;;;;;;;;5010258;28;20045;-76
2020/12/24 11:25:56;;;;;;;2.78;1.02;;;;;;;;;;4992741;28;20050;-77
2020/12/24 11:28:22;;;;;;;2.33;1.10;;;;;;;;;;5010216;28;20050;-75
2020/12/24 11:30:48;;;;;;;1.55;0.90;;;;;;;;;;5010358;28;20392;-76
2020/12/24 11:33:14;;;;;;;0.85;0.70;;;;;;;;;;5010450;28;20500;-76
2020/12/24 11:35:40;;;;;;;1.33;0.60;;;;;;;;;;5010029;28;20123;-76
2020/12/24 11:38:07;;;;;;;2.25;0.70;;;;;;;;;;5010153;28;20033;-76
2020/12/24 11:40:33;;;;;;;1.45;0.70;;;;;;;;;;5009892;28;20026;-76
2020/12/24 11:42:59;;;;;;;1.17;0.60;;;;;;;;;;5010078;28;20033;-76
2020/12/24 11:45:25;;;;;;;0.65;0.60;;;;;;;;;;5010248;28;20038;-76
2020/12/24 11:47:51;;;;;;;1.52;0.93;;;;;;;;;;5009239;28;20030;-76
2020/12/24 11:50:17;;;;;;;1.92;1.00;;;;;;;;;;5009909;28;20040;-76
2020/12/24 11:52:43;;;;;;;1.33;0.70;;;;;;;;;;4997164;28;20033;-77
2020/12/24 11:55:09;;;;;;;3.42;1.42;;;;;;;;;;4990684;28;20831;-77
2020/12/24 11:57:39;;;;;;;2.13;1.08;;;;;;;;;;4990783;28;20026;-76
2020/12/24 12:00:06;;;;;;;1.90;1.08;;;;;;;;;;4990286;28;20046;-76
2020/12/24 12:02:33;;;;;;;2.03;1.40;;;;;;;;;;4990104;28;20022;-76
2020/12/24 12:04:59;;;;;;;0.75;0.63;;;;;;;;;;4990128;28;20046;-76
2020/12/24 12:07:25;;;;;;;0.50;0.40;;;;;;;;;;4990668;28;20402;-76
2020/12/24 12:09:51;;;;;;;0.60;0.50;;;;;;;;;;4973051;28;20443;-77
2020/12/24 12:12:17;;;;;;;1.35;0.68;;;;;;;;;;4990125;28;20030;-76
2020/12/24 12:14:44;;;;;;;0.90;0.52;;;;;;;;;;4989908;28;20474;-76
2020/12/24 12:17:14;;;;;;;0.88;0.60;;;;;;;;;;4990178;28;20089;-76
2020/12/24 12:19:43;;;;;;;3.53;0.90;;;;;;;;;;4990452;28;20023;-76
2020/12/24 12:22:10;;;;;;;1.35;1.00;;;;;;;;;;4990205;28;20079;-76
2020/12/24 12:24:36;;;;;;;3.25;1.80;;;;;;;;;;4990232;28;20031;-76
2020/12/24 12:27:02;;;;;;;4.63;1.65;;;;;;;;;;4989975;28;20030;-76
2020/12/24 12:29:28;;;;;;;2.38;1.33;;;;;;;;;;4972681;28;20089;-76
2020/12/24 12:31:54;;;;;;;2.28;1.10;;;;;;;;;;4990204;28;20034;-76
2020/12/24 12:34:20;;;;;;;1.30;0.70;;;;;;;;;;4989883;28;20398;-76
2020/12/24 12:36:47;;;;;;;1.65;1.00;;;;;;;;;;4989953;28;20049;-76
2020/12/24 12:39:13;;;;;;;3.28;1.50;;;;;;;;;;4989732;28;20019;-77
2020/12/24 12:41:39;;;;;;;2.42;1.02;;;;;;;;;;4989987;28;20022;-77
2020/12/24 12:44:05;;;;;;;2.10;1.20;;;;;;;;;;4989930;28;20038;-76
2020/12/24 12:46:31;;;;;;;3.90;1.10;;;;;;;;;;4989494;28;20034;-77
2020/12/24 12:48:57;;;;;;;0.68;0.68;;;;;;;;;;4990041;28;20033;-77
2020/12/24 12:51:23;;;;;;;1.00;0.93;;;;;;;;;;4991060;28;20049;-77
2020/12/24 12:53:49;;;;;;;3.50;1.20;;;;;;;;;;5009202;28;20057;-76
2020/12/24 12:56:22;;;;;;;2.53;0.60;;;;;;;;;;5009514;28;20469;-76
2020/12/24 12:58:48;;;;;;;0.63;0.50;;;;;;;;;;5009309;28;20050;-77
2020/12/24 13:01:17;;;;;;;1.92;0.70;;;;;;;;;;5013212;28;20147;-76
2020/12/24 13:03:44;;;;;;;0.52;0.40;;;;;;;;;;5012903;28;20041;-77
2020/12/24 13:06:13;;;;;;;0.75;0.60;;;;;;;;;;5013263;28;20428;-77
2020/12/24 13:08:39;;;;;;;1.40;0.75;;;;;;;;;;5013068;28;20026;-76
2020/12/24 13:11:07;;;;;;;1.20;0.63;;;;;;;;;;5012626;28;20037;-77
2020/12/24 13:13:33;;;;;;;0.65;0.45;;;;;;;;;;5013195;28;20524;-77
2020/12/24 13:15:59;;;;;;;0.63;0.50;;;;;;;;;;5012360;28;20052;-76
2020/12/24 13:18:25;;;;;;;0.70;0.47;;;;;;;;;;5012947;28;20022;-77
2020/12/24 13:20:51;;;;;;;1.02;0.50;;;;;;;;;;5012537;28;20382;-77
2020/12/24 13:23:17;;;;;;;0.68;0.40;;;;;;;;;;5012307;28;20485;-76
2020/12/24 13:25:44;;;;;;;1.95;0.85;;;;;;;;;;5012695;28;20041;-77
2020/12/24 13:28:10;;;;;;;0.90;0.80;;;;;;;;;;5011976;28;20026;-76
2020/12/24 13:30:36;;;;;;;1.15;0.75;;;;;;;;;;5012699;28;20482;-76
2020/12/24 13:33:02;;;;;;;0.98;0.50;;;;;;;;;;5012367;28;20030;-76
2020/12/24 13:35:28;;;;;;;2.03;0.30;;;;;;;;;;5012333;28;20030;-76
2020/12/24 13:37:54;;;;;;;0.20;0.20;;;;;;;;;;5012689;28;20026;-77
2020/12/24 13:40:20;;;;;;;0.30;0.30;;;;;;;;;;5011962;28;20191;-76
2020/12/24 13:42:46;;;;;;;0.30;0.20;;;;;;;;;;5012370;28;20022;-77
2020/12/24 13:45:14;;;;;;;0.28;0.20;;;;;;;;;;5012671;28;20061;-77
2020/12/24 13:47:40;;;;;;;0.03;0.03;;;;;;;;;;4995076;28;20033;-76
2020/12/24 13:50:06;;;;;;;0.30;0.30;;;;;;;;;;5012681;28;20021;-76
2020/12/24 13:52:32;;;;;;;0.28;0.20;;;;;;;;;;4984100;28;20386;-76
2020/12/24 13:54:58;;;;;;;0.20;0.20;;;;;;;;;;4993236;28;20377;-76
2020/12/24 13:57:24;;;;;;;0.75;0.50;;;;;;;;;;4993416;28;20029;-76
2020/12/24 13:59:50;;;;;;;0.85;0.50;;;;;;;;;;4992822;28;20104;-76
2020/12/24 14:02:16;;;;;;;0.80;0.50;;;;;;;;;;4992862;28;20030;-76
2020/12/24 14:04:42;;;;;;;0.43;0.40;;;;;;;;;;4992553;28;20033;-76
2020/12/24 14:07:08;;;;;;;0.70;0.40;;;;;;;;;;4992698;28;20038;-76
2020/12/24 14:09:34;;;;;;;0.50;0.43;;;;;;;;;;4992682;28;20033;-75
2020/12/24 14:12:01;;;;;;;0.30;0.30;;;;;;;;;;4991702;28;20033;-76
2020/12/24 14:14:27;;;;;;;0.25;0.22;;;;;;;;;;4992844;28;20027;-76
2020/12/24 14:16:53;;;;;;;0.63;0.47;;;;;;;;;;4992565;28;20049;-76
2020/12/24 14:19:20;;;;;;;0.40;0.38;;;;;;;;;;4992894;28;20045;-75
2020/12/24 14:21:46;;;;;;;0.47;0.40;;;;;;;;;;4975147;28;20037;-76
2020/12/24 14:24:13;;;;;;;0.40;0.40;;;;;;;;;;4992449;28;20034;-75
2020/12/24 14:26:39;;;;;;;1.02;0.50;;;;;;;;;;4990802;28;20079;-75
2020/12/24 14:29:05;;;;;;;0.60;0.60;;;;;;;;;;5010800;28;20021;-76
2020/12/24 14:31:32;;;;;;;2.40;1.50;;;;;;;;;;5011077;28;20032;-76
2020/12/24 14:33:58;;;;;;;2.28;0.93;;;;;;;;;;5011011;28;20026;-76
2020/12/24 14:36:24;;;;;;;1.70;0.65;;;;;;;;;;5011359;28;20456;-76
2020/12/24 14:38:50;;;;;;;0.75;0.70;;;;;;;;;;5011032;28;20320;-76
2020/12/24 14:41:16;;;;;;;0.70;0.50;;;;;;;;;;5011481;28;20022;-76
2020/12/24 14:43:42;;;;;;;0.60;0.60;;;;;;;;;;5011108;28;20381;-76